Waldron Lake, Indiana
Current Conditions -  °F | °C
As of 7:53 AM on Friday 19 Dec 2014 (Local Time) from KGSH Reporting Station
Haze Haze  
Wind Chill: 27°   Ceiling: 3200
Heat Index: 27°   Visibility: 6mi
Dew Point: 23°   Wind: 0mph
Humidity: 85%   Direction: NA
Pressure: 30.25"   Gusts: NA
Location:  41.4818°N, 85.481°W
Report Text: KGSH 191253Z AUTO 00000KT 6SM BR OVC032 M03/M05 A3025 RMK AO2 SLP256 T10281050
Loading
Personal Weather Stations






























Interactive Weather Map New forecast layout! Learn more

10-Day Weather Forecast

Advertisements
Track Severe Weather on mobile